EST,Max TemperatureF,Mean TemperatureF,Min TemperatureF,Max Dew PointF,MeanDew PointF,Min DewpointF,Max Humidity, Mean Humidity, Min Humidity, Max Sea Level PressureIn, Mean Sea Level PressureIn, Min Sea Level PressureIn, Max VisibilityMiles, Mean VisibilityMiles, Min VisibilityMiles, Max Wind SpeedMPH, Mean Wind SpeedMPH, Max Gust SpeedMPH,PrecipitationIn, CloudCover, Events, WindDirDegrees
2013-1-1,23,20,16,16,12,8,88,72,60,30.14,30.04,29.97,10,8,2,15,7,20,0.00,8,Snow,284
2013-1-2,24,20,15,20,16,6,86,77,62,30.12,30.06,29.97,10,7,2,9,4,,0.00,7,Snow,204
2013-1-3,28,24,21,22,19,14,85,75,64,30.06,29.98,29.92,10,8,4,18,8,34,0.01,8,Snow,258
2013-1-4,34,31,28,25,22,19,80,72,61,30.10,29.88,29.78,10,9,6,28,17,41,0.00,6,,263
2013-1-5,34,26,17,27,21,13,86,74,59,30.20,30.04,29.83,10,10,8,18,6,,0.00,6,,153
2013-1-6,35,30,25,27,24,17,86,78,69,30.27,29.95,29.77,10,8,2,13,6,18,0.00,8,Snow,341
2013-1-7,39,32,24,28,21,17,75,67,51,30.26,30.07,29.88,10,10,10,30,8,38,0.00,4,,197
2013-1-8,41,34,27,29,27,23,85,76,57,30.14,30.06,29.95,10,9,7,16,8,30,0.00,0,,201
2013-1-9,39,36,32,31,26,21,76,65,57,30.41,29.97,29.76,10,10,7,23,13,33,0.00,7,Rain,250
2013-1-10,39,30,21,26,22,17,85,71,53,30.56,30.43,30.20,10,10,10,13,5,,0.00,0,,130
2013-1-11,43,38,33,43,37,26,100,94,70,30.10,29.75,29.65,10,4,0,15,7,22,0.36,8,Fog-Rain,156
2013-1-12,52,44,35,43,35,27,96,76,54,29.94,29.75,29.61,10,10,3,25,11,38,0.00,3,,216
2013-1-13,35,30,26,28,27,23,93,86,70,29.95,29.89,29.83,10,6,0,14,4,20,0.07,8,Fog-Rain-Snow,304
2013-1-14,26,22,19,23,14,6,86,72,46,30.36,30.21,29.92,10,6,1,16,10,25,0.00,7,Snow,260
2013-1-15,27,14,1,18,11,-1,88,66,58,30.38,30.28,30.05,10,9,4,14,10,25,0.00,6,Snow,221
2013-1-16,30,24,19,27,20,9,93,76,63,29.99,29.76,29.57,10,6,0,30,14,37,0.03,6,Fog-Snow,267
2013-1-17,17,12,7,9,4,-3,80,67,51,30.31,30.19,30.01,10,8,2,18,9,25,0.00,8,Snow,323
2013-1-18,32,22,12,28,12,-1,93,76,54,30.34,30.07,29.72,10,5,0,13,9,20,0.04,8,Fog-Snow,173
2013-1-19,37,32,25,33,25,20,93,84,78,29.82,29.59,29.38,10,5,1,32,7,44,0.21,8,Rain-Snow-Thunderstorm,260
2013-1-20,24,17,10,16,10,2,100,85,70,30.15,29.89,29.42,10,3,0,30,22,47,0.00,8,Fog-Snow,306
2013-1-21,10,6,1,7,2,-4,92,79,70,30.07,29.95,29.87,10,2,0,25,9,31,0.01,8,Snow,286
2013-1-22,7,4,0,0,-3,-6,92,81,66,30.24,30.12,29.99,10,3,1,14,8,21,0.02,8,Snow,336
2013-1-23,12,8,5,10,5,-1,92,82,72,30.27,30.08,29.99,10,3,0,12,5,,0.01,8,Fog-Snow,304
2013-1-24,10,-3,-16,6,-5,-21,96,83,67,30.68,30.51,30.22,10,9,2,9,5,,0.00,3,,339
2013-1-25,18,12,5,14,7,-1,92,83,76,30.48,30.08,29.95,10,4,0,12,5,,0.00,8,Fog-Snow,142
2013-1-26,25,13,1,18,7,0,100,84,59,30.42,30.24,30.02,10,6,0,4,0,,0.00,5,Fog-Snow,239
2013-1-27,28,20,12,25,20,8,93,84,67,30.42,30.23,30.05,10,6,1,10,5,,0.03,8,Snow,137
2013-1-28,33,30,26,28,26,23,93,89,81,30.06,29.93,29.82,10,5,1,10,6,,0.07,8,Snow,108
2013-1-29,46,38,30,46,34,27,100,93,85,29.98,29.64,29.47,10,6,0,13,7,,0.34,8,Fog-Rain,147
2013-1-30,35,26,17,33,27,12,93,88,78,29.47,29.22,29.11,10,4,0,21,10,28,0.28,8,Fog-Rain-Snow,355
2013-1-31,17,14,10,10,8,3,85,77,68,29.84,29.55,29.20,7,3,1,21,15,28,0.00,8,Snow,308